sensor_id;sensor_type;location;lat;lon;timestamp;P1;durP1;ratioP1;P2;durP2;ratioP2
17145;SDS011;8688;54.444;18.444;2023-06-22T00:01:19;13.75;;;8.18;;
17145;SDS011;8688;54.444;18.444;2023-06-22T00:03:47;12.35;;;8.05;;
17145;SDS011;8688;54.444;18.444;2023-06-22T00:06:15;9.32;;;7.93;;
17145;SDS011;8688;54.444;18.444;2023-06-22T00:08:44;10.93;;;8.10;;
17145;SDS011;8688;54.444;18.444;2023-06-22T00:11:12;10.50;;;8.00;;
17145;SDS011;8688;54.444;18.444;2023-06-22T00:13:40;11.20;;;8.07;;
17145;SDS011;8688;54.444;18.444;2023-06-22T00:16:07;12.48;;;8.10;;
17145;SDS011;8688;54.444;18.444;2023-06-22T00:18:34;10.35;;;8.07;;
17145;SDS011;8688;54.444;18.444;2023-06-22T00:21:02;12.55;;;8.07;;
17145;SDS011;8688;54.444;18.444;2023-06-22T00:23:29;12.30;;;8.38;;
17145;SDS011;8688;54.444;18.444;2023-06-22T00:26:00;11.15;;;7.95;;
17145;SDS011;8688;54.444;18.444;2023-06-22T00:28:28;11.27;;;8.20;;
17145;SDS011;8688;54.444;18.444;2023-06-22T00:30:55;12.55;;;7.80;;
17145;SDS011;8688;54.444;18.444;2023-06-22T00:33:23;12.55;;;8.60;;
17145;SDS011;8688;54.444;18.444;2023-06-22T00:35:50;10.32;;;8.10;;
17145;SDS011;8688;54.444;18.444;2023-06-22T00:38:19;12.13;;;8.75;;
17145;SDS011;8688;54.444;18.444;2023-06-22T00:40:47;11.23;;;8.40;;
17145;SDS011;8688;54.444;18.444;2023-06-22T00:43:16;11.57;;;8.75;;
17145;SDS011;8688;54.444;18.444;2023-06-22T00:45:43;15.98;;;8.73;;
17145;SDS011;8688;54.444;18.444;2023-06-22T00:48:11;15.65;;;9.07;;
17145;SDS011;8688;54.444;18.444;2023-06-22T00:50:40;11.45;;;8.75;;
17145;SDS011;8688;54.444;18.444;2023-06-22T00:53:08;13.77;;;8.77;;
17145;SDS011;8688;54.444;18.444;2023-06-22T00:55:37;11.65;;;8.80;;
17145;SDS011;8688;54.444;18.444;2023-06-22T00:58:08;13.98;;;8.25;;
17145;SDS011;8688;54.444;18.444;2023-06-22T01:00:38;13.95;;;8.63;;
17145;SDS011;8688;54.444;18.444;2023-06-22T01:03:06;16.30;;;8.88;;
17145;SDS011;8688;54.444;18.444;2023-06-22T01:05:35;15.90;;;8.25;;
17145;SDS011;8688;54.444;18.444;2023-06-22T01:08:08;11.95;;;8.13;;
17145;SDS011;8688;54.444;18.444;2023-06-22T01:10:44;14.93;;;8.52;;
17145;SDS011;8688;54.444;18.444;2023-06-22T01:13:20;10.45;;;8.13;;
17145;SDS011;8688;54.444;18.444;2023-06-22T01:15:57;12.15;;;8.18;;
17145;SDS011;8688;54.444;18.444;2023-06-22T01:18:29;11.88;;;8.52;;
17145;SDS011;8688;54.444;18.444;2023-06-22T01:20:58;14.05;;;8.20;;
17145;SDS011;8688;54.444;18.444;2023-06-22T01:23:33;15.02;;;8.57;;
17145;SDS011;8688;54.444;18.444;2023-06-22T01:26:12;9.80;;;8.10;;
17145;SDS011;8688;54.444;18.444;2023-06-22T01:28:47;11.73;;;8.55;;
17145;SDS011;8688;54.444;18.444;2023-06-22T01:31:16;17.38;;;8.82;;
17145;SDS011;8688;54.444;18.444;2023-06-22T01:33:47;13.57;;;8.70;;
17145;SDS011;8688;54.444;18.444;2023-06-22T01:36:17;13.98;;;9.05;;
17145;SDS011;8688;54.444;18.444;2023-06-22T01:38:45;13.05;;;8.93;;
17145;SDS011;8688;54.444;18.444;2023-06-22T01:41:14;14.13;;;8.82;;
17145;SDS011;8688;54.444;18.444;2023-06-22T01:43:43;16.10;;;8.70;;
17145;SDS011;8688;54.444;18.444;2023-06-22T01:46:13;15.13;;;8.63;;
17145;SDS011;8688;54.444;18.444;2023-06-22T01:48:44;12.35;;;8.85;;
17145;SDS011;8688;54.444;18.444;2023-06-22T01:51:12;13.65;;;9.10;;
17145;SDS011;8688;54.444;18.444;2023-06-22T01:53:40;13.68;;;9.13;;
17145;SDS011;8688;54.444;18.444;2023-06-22T01:56:07;16.38;;;9.77;;
17145;SDS011;8688;54.444;18.444;2023-06-22T01:58:37;13.93;;;9.32;;
17145;SDS011;8688;54.444;18.444;2023-06-22T02:01:10;15.18;;;9.02;;
17145;SDS011;8688;54.444;18.444;2023-06-22T02:03:41;17.42;;;10.10;;
17145;SDS011;8688;54.444;18.444;2023-06-22T02:06:14;15.68;;;9.07;;
17145;SDS011;8688;54.444;18.444;2023-06-22T02:08:49;14.57;;;9.68;;
17145;SDS011;8688;54.444;18.444;2023-06-22T02:11:20;15.05;;;9.90;;
17145;SDS011;8688;54.444;18.444;2023-06-22T02:13:49;15.05;;;9.48;;
17145;SDS011;8688;54.444;18.444;2023-06-22T02:16:18;15.20;;;10.18;;
17145;SDS011;8688;54.444;18.444;2023-06-22T02:18:48;17.25;;;10.45;;
17145;SDS011;8688;54.444;18.444;2023-06-22T02:21:17;15.63;;;9.63;;
17145;SDS011;8688;54.444;18.444;2023-06-22T02:23:44;17.98;;;10.55;;
17145;SDS011;8688;54.444;18.444;2023-06-22T02:26:12;14.77;;;10.93;;
17145;SDS011;8688;54.444;18.444;2023-06-22T02:28:40;18.00;;;10.95;;
17145;SDS011;8688;54.444;18.444;2023-06-22T02:31:07;14.43;;;10.25;;
17145;SDS011;8688;54.444;18.444;2023-06-22T02:33:35;17.85;;;11.43;;
17145;SDS011;8688;54.444;18.444;2023-06-22T02:36:04;15.98;;;11.98;;
17145;SDS011;8688;54.444;18.444;2023-06-22T02:38:34;18.92;;;11.52;;
17145;SDS011;8688;54.444;18.444;2023-06-22T02:41:01;17.55;;;12.13;;
17145;SDS011;8688;54.444;18.444;2023-06-22T02:43:29;21.63;;;12.65;;
17145;SDS011;8688;54.444;18.444;2023-06-22T02:45:57;20.60;;;13.07;;
17145;SDS011;8688;54.444;18.444;2023-06-22T02:48:25;17.33;;;12.52;;
17145;SDS011;8688;54.444;18.444;2023-06-22T02:50:52;20.05;;;13.05;;
17145;SDS011;8688;54.444;18.444;2023-06-22T02:53:21;19.02;;;13.20;;
17145;SDS011;8688;54.444;18.444;2023-06-22T02:55:49;19.00;;;12.50;;
17145;SDS011;8688;54.444;18.444;2023-06-22T02:58:16;21.35;;;12.32;;
17145;SDS011;8688;54.444;18.444;2023-06-22T03:00:44;18.30;;;12.15;;
17145;SDS011;8688;54.444;18.444;2023-06-22T03:03:11;21.63;;;12.43;;
17145;SDS011;8688;54.444;18.444;2023-06-22T03:05:39;21.13;;;12.57;;
17145;SDS011;8688;54.444;18.444;2023-06-22T03:08:06;19.52;;;12.40;;
17145;SDS011;8688;54.444;18.444;2023-06-22T03:10:35;17.40;;;11.18;;
17145;SDS011;8688;54.444;18.444;2023-06-22T03:13:03;17.40;;;11.43;;
17145;SDS011;8688;54.444;18.444;2023-06-22T03:15:30;16.42;;;11.35;;
17145;SDS011;8688;54.444;18.444;2023-06-22T03:17:59;18.05;;;11.02;;
17145;SDS011;8688;54.444;18.444;2023-06-22T03:20:27;20.13;;;11.80;;
17145;SDS011;8688;54.444;18.444;2023-06-22T03:22:58;19.02;;;11.88;;
17145;SDS011;8688;54.444;18.444;2023-06-22T03:25:26;19.95;;;11.77;;
17145;SDS011;8688;54.444;18.444;2023-06-22T03:27:55;15.45;;;11.48;;
17145;SDS011;8688;54.444;18.444;2023-06-22T03:30:22;19.52;;;11.07;;
17145;SDS011;8688;54.444;18.444;2023-06-22T03:32:49;18.17;;;11.77;;
17145;SDS011;8688;54.444;18.444;2023-06-22T03:35:17;18.52;;;12.00;;
17145;SDS011;8688;54.444;18.444;2023-06-22T03:37:44;16.15;;;10.88;;
17145;SDS011;8688;54.444;18.444;2023-06-22T03:40:12;19.05;;;11.18;;
17145;SDS011;8688;54.444;18.444;2023-06-22T03:42:40;15.40;;;10.50;;
17145;SDS011;8688;54.444;18.444;2023-06-22T03:45:09;15.00;;;10.82;;
17145;SDS011;8688;54.444;18.444;2023-06-22T03:47:37;15.57;;;10.45;;
17145;SDS011;8688;54.444;18.444;2023-06-22T03:50:05;17.35;;;10.07;;
17145;SDS011;8688;54.444;18.444;2023-06-22T03:52:33;16.23;;;10.57;;
17145;SDS011;8688;54.444;18.444;2023-06-22T03:55:00;15.57;;;10.52;;
17145;SDS011;8688;54.444;18.444;2023-06-22T03:57:28;15.30;;;10.65;;
17145;SDS011;8688;54.444;18.444;2023-06-22T03:59:56;17.55;;;10.32;;
17145;SDS011;8688;54.444;18.444;2023-06-22T04:02:25;18.17;;;10.02;;
17145;SDS011;8688;54.444;18.444;2023-06-22T04:04:53;22.38;;;10.82;;
17145;SDS011;8688;54.444;18.444;2023-06-22T04:07:20;16.20;;;9.98;;
17145;SDS011;8688;54.444;18.444;2023-06-22T04:09:48;16.52;;;10.73;;
17145;SDS011;8688;54.444;18.444;2023-06-22T04:12:15;17.05;;;10.35;;
17145;SDS011;8688;54.444;18.444;2023-06-22T04:14:43;16.08;;;10.43;;
17145;SDS011;8688;54.444;18.444;2023-06-22T04:17:10;17.33;;;10.07;;
17145;SDS011;8688;54.444;18.444;2023-06-22T04:19:40;16.02;;;10.20;;
17145;SDS011;8688;54.444;18.444;2023-06-22T04:22:08;17.63;;;9.95;;
17145;SDS011;8688;54.444;18.444;2023-06-22T04:24:35;12.63;;;9.07;;
17145;SDS011;8688;54.444;18.444;2023-06-22T04:27:03;15.30;;;9.32;;
17145;SDS011;8688;54.444;18.444;2023-06-22T04:29:32;12.18;;;8.18;;
17145;SDS011;8688;54.444;18.444;2023-06-22T04:31:59;16.35;;;8.57;;
17145;SDS011;8688;54.444;18.444;2023-06-22T04:34:30;13.15;;;8.73;;
17145;SDS011;8688;54.444;18.444;2023-06-22T04:36:59;13.00;;;7.60;;
17145;SDS011;8688;54.444;18.444;2023-06-22T04:39:27;14.25;;;8.10;;
17145;SDS011;8688;54.444;18.444;2023-06-22T04:41:54;15.27;;;7.78;;
17145;SDS011;8688;54.444;18.444;2023-06-22T04:44:25;13.27;;;7.90;;
17145;SDS011;8688;54.444;18.444;2023-06-22T04:46:56;12.07;;;7.78;;
17145;SDS011;8688;54.444;18.444;2023-06-22T04:49:28;14.13;;;7.45;;
17145;SDS011;8688;54.444;18.444;2023-06-22T04:51:58;13.18;;;7.82;;
17145;SDS011;8688;54.444;18.444;2023-06-22T04:54:27;10.13;;;7.03;;
17145;SDS011;8688;54.444;18.444;2023-06-22T04:56:58;10.45;;;6.68;;
17145;SDS011;8688;54.444;18.444;2023-06-22T04:59:26;10.85;;;6.32;;
17145;SDS011;8688;54.444;18.444;2023-06-22T05:01:55;10.93;;;6.53;;
17145;SDS011;8688;54.444;18.444;2023-06-22T05:04:23;10.23;;;6.13;;
17145;SDS011;8688;54.444;18.444;2023-06-22T05:06:51;11.23;;;6.75;;
17145;SDS011;8688;54.444;18.444;2023-06-22T05:09:20;12.93;;;6.97;;
17145;SDS011;8688;54.444;18.444;2023-06-22T05:11:48;12.10;;;6.53;;
17145;SDS011;8688;54.444;18.444;2023-06-22T05:14:16;10.35;;;6.03;;
17145;SDS011;8688;54.444;18.444;2023-06-22T05:16:44;7.78;;;5.35;;
17145;SDS011;8688;54.444;18.444;2023-06-22T05:19:12;22.15;;;6.60;;
17145;SDS011;8688;54.444;18.444;2023-06-22T05:21:40;11.00;;;4.95;;
17145;SDS011;8688;54.444;18.444;2023-06-22T05:24:07;10.77;;;4.80;;
17145;SDS011;8688;54.444;18.444;2023-06-22T05:26:37;8.63;;;4.60;;
17145;SDS011;8688;54.444;18.444;2023-06-22T05:29:04;10.27;;;4.05;;
17145;SDS011;8688;54.444;18.444;2023-06-22T05:31:32;7.72;;;4.35;;
17145;SDS011;8688;54.444;18.444;2023-06-22T05:33:59;5.32;;;3.78;;
17145;SDS011;8688;54.444;18.444;2023-06-22T05:36:26;9.23;;;3.83;;
17145;SDS011;8688;54.444;18.444;2023-06-22T05:38:56;9.73;;;4.13;;
17145;SDS011;8688;54.444;18.444;2023-06-22T05:41:24;11.68;;;4.13;;
17145;SDS011;8688;54.444;18.444;2023-06-22T05:43:53;6.35;;;3.97;;
17145;SDS011;8688;54.444;18.444;2023-06-22T05:46:21;10.15;;;3.88;;
17145;SDS011;8688;54.444;18.444;2023-06-22T05:48:49;11.43;;;4.30;;
17145;SDS011;8688;54.444;18.444;2023-06-22T05:51:17;13.63;;;4.13;;
17145;SDS011;8688;54.444;18.444;2023-06-22T05:53:44;8.77;;;3.88;;
17145;SDS011;8688;54.444;18.444;2023-06-22T05:56:15;9.57;;;4.30;;
17145;SDS011;8688;54.444;18.444;2023-06-22T05:58:42;10.70;;;3.83;;
17145;SDS011;8688;54.444;18.444;2023-06-22T06:01:11;8.95;;;3.47;;
17145;SDS011;8688;54.444;18.444;2023-06-22T06:03:40;9.15;;;3.95;;
17145;SDS011;8688;54.444;18.444;2023-06-22T06:06:09;9.55;;;3.38;;
17145;SDS011;8688;54.444;18.444;2023-06-22T06:08:37;7.32;;;3.22;;
17145;SDS011;8688;54.444;18.444;2023-06-22T06:11:05;6.93;;;3.58;;
17145;SDS011;8688;54.444;18.444;2023-06-22T06:13:33;9.77;;;3.40;;
17145;SDS011;8688;54.444;18.444;2023-06-22T06:16:00;5.45;;;3.05;;
17145;SDS011;8688;54.444;18.444;2023-06-22T06:18:29;5.70;;;3.35;;
17145;SDS011;8688;54.444;18.444;2023-06-22T06:20:57;7.13;;;3.13;;
17145;SDS011;8688;54.444;18.444;2023-06-22T06:23:24;6.82;;;3.10;;
17145;SDS011;8688;54.444;18.444;2023-06-22T06:25:51;8.52;;;3.03;;
17145;SDS011;8688;54.444;18.444;2023-06-22T06:28:19;7.75;;;3.20;;
17145;SDS011;8688;54.444;18.444;2023-06-22T06:30:46;6.80;;;2.80;;
17145;SDS011;8688;54.444;18.444;2023-06-22T06:33:14;5.43;;;2.90;;
17145;SDS011;8688;54.444;18.444;2023-06-22T06:35:43;9.05;;;2.97;;
17145;SDS011;8688;54.444;18.444;2023-06-22T06:38:10;9.10;;;2.95;;
17145;SDS011;8688;54.444;18.444;2023-06-22T06:40:38;5.18;;;2.80;;
17145;SDS011;8688;54.444;18.444;2023-06-22T06:43:05;3.80;;;2.60;;
17145;SDS011;8688;54.444;18.444;2023-06-22T06:45:33;3.88;;;2.10;;
17145;SDS011;8688;54.444;18.444;2023-06-22T06:48:01;4.97;;;2.42;;
17145;SDS011;8688;54.444;18.444;2023-06-22T06:50:28;10.60;;;2.38;;
17145;SDS011;8688;54.444;18.444;2023-06-22T06:52:57;5.38;;;2.50;;
17145;SDS011;8688;54.444;18.444;2023-06-22T06:55:25;7.13;;;2.00;;
17145;SDS011;8688;54.444;18.444;2023-06-22T06:57:55;3.28;;;2.22;;
17145;SDS011;8688;54.444;18.444;2023-06-22T07:00:22;5.53;;;2.38;;
17145;SDS011;8688;54.444;18.444;2023-06-22T07:02:51;6.38;;;2.22;;
17145;SDS011;8688;54.444;18.444;2023-06-22T07:05:19;5.18;;;2.40;;
17145;SDS011;8688;54.444;18.444;2023-06-22T07:07:46;5.05;;;2.30;;
17145;SDS011;8688;54.444;18.444;2023-06-22T07:10:17;5.25;;;2.50;;
17145;SDS011;8688;54.444;18.444;2023-06-22T07:12:44;9.48;;;2.53;;
17145;SDS011;8688;54.444;18.444;2023-06-22T07:15:12;4.57;;;2.92;;
17145;SDS011;8688;54.444;18.444;2023-06-22T07:17:40;9.93;;;2.53;;
17145;SDS011;8688;54.444;18.444;2023-06-22T07:20:07;5.72;;;2.28;;
17145;SDS011;8688;54.444;18.444;2023-06-22T07:22:37;5.00;;;2.35;;
17145;SDS011;8688;54.444;18.444;2023-06-22T07:25:05;7.28;;;2.17;;
17145;SDS011;8688;54.444;18.444;2023-06-22T07:27:37;5.18;;;2.50;;
17145;SDS011;8688;54.444;18.444;2023-06-22T07:30:08;5.32;;;2.53;;
17145;SDS011;8688;54.444;18.444;2023-06-22T07:32:36;7.18;;;2.60;;
17145;SDS011;8688;54.444;18.444;2023-06-22T07:35:04;4.57;;;2.55;;
17145;SDS011;8688;54.444;18.444;2023-06-22T07:37:32;6.05;;;2.40;;
17145;SDS011;8688;54.444;18.444;2023-06-22T07:40:00;6.85;;;3.10;;
17145;SDS011;8688;54.444;18.444;2023-06-22T07:42:31;7.97;;;2.28;;
17145;SDS011;8688;54.444;18.444;2023-06-22T07:45:01;4.63;;;2.72;;
17145;SDS011;8688;54.444;18.444;2023-06-22T07:47:29;6.03;;;2.70;;
17145;SDS011;8688;54.444;18.444;2023-06-22T07:50:00;6.07;;;2.40;;
17145;SDS011;8688;54.444;18.444;2023-06-22T07:52:28;3.42;;;2.28;;
17145;SDS011;8688;54.444;18.444;2023-06-22T07:54:56;3.88;;;2.40;;
17145;SDS011;8688;54.444;18.444;2023-06-22T07:57:23;7.75;;;2.67;;
17145;SDS011;8688;54.444;18.444;2023-06-22T07:59:57;4.90;;;2.65;;
17145;SDS011;8688;54.444;18.444;2023-06-22T08:02:26;15.50;;;3.33;;
17145;SDS011;8688;54.444;18.444;2023-06-22T08:04:54;4.47;;;2.25;;
17145;SDS011;8688;54.444;18.444;2023-06-22T08:07:21;5.68;;;2.65;;
17145;SDS011;8688;54.444;18.444;2023-06-22T08:09:49;8.32;;;2.50;;
17145;SDS011;8688;54.444;18.444;2023-06-22T08:12:16;5.70;;;2.10;;
17145;SDS011;8688;54.444;18.444;2023-06-22T08:14:44;5.85;;;2.40;;
17145;SDS011;8688;54.444;18.444;2023-06-22T08:17:11;4.05;;;2.28;;
17145;SDS011;8688;54.444;18.444;2023-06-22T08:19:41;8.07;;;2.53;;
17145;SDS011;8688;54.444;18.444;2023-06-22T08:22:08;7.15;;;2.45;;
17145;SDS011;8688;54.444;18.444;2023-06-22T08:24:36;5.55;;;2.53;;
17145;SDS011;8688;54.444;18.444;2023-06-22T08:27:04;4.15;;;2.58;;
17145;SDS011;8688;54.444;18.444;2023-06-22T08:29:35;4.47;;;2.53;;
17145;SDS011;8688;54.444;18.444;2023-06-22T08:32:02;8.95;;;2.20;;
17145;SDS011;8688;54.444;18.444;2023-06-22T08:34:30;6.22;;;2.60;;
17145;SDS011;8688;54.444;18.444;2023-06-22T08:36:59;8.68;;;2.70;;
17145;SDS011;8688;54.444;18.444;2023-06-22T08:39:31;5.05;;;2.35;;
17145;SDS011;8688;54.444;18.444;2023-06-22T08:41:59;8.10;;;2.10;;
17145;SDS011;8688;54.444;18.444;2023-06-22T08:44:26;7.35;;;2.20;;
17145;SDS011;8688;54.444;18.444;2023-06-22T08:46:54;5.82;;;2.22;;
17145;SDS011;8688;54.444;18.444;2023-06-22T08:49:21;7.43;;;1.98;;
17145;SDS011;8688;54.444;18.444;2023-06-22T08:51:49;2.70;;;2.03;;
17145;SDS011;8688;54.444;18.444;2023-06-22T08:54:20;6.63;;;2.55;;
17145;SDS011;8688;54.444;18.444;2023-06-22T08:56:47;5.40;;;2.42;;
17145;SDS011;8688;54.444;18.444;2023-06-22T08:59:15;12.68;;;2.80;;
17145;SDS011;8688;54.444;18.444;2023-06-22T09:01:42;7.70;;;2.50;;
17145;SDS011;8688;54.444;18.444;2023-06-22T09:04:14;4.72;;;2.30;;
17145;SDS011;8688;54.444;18.444;2023-06-22T09:06:41;4.95;;;2.03;;
17145;SDS011;8688;54.444;18.444;2023-06-22T09:09:11;6.40;;;2.30;;
17145;SDS011;8688;54.444;18.444;2023-06-22T09:11:41;5.35;;;2.63;;
17145;SDS011;8688;54.444;18.444;2023-06-22T09:14:08;2.63;;;2.10;;
17145;SDS011;8688;54.444;18.444;2023-06-22T09:16:36;5.22;;;2.20;;
17145;SDS011;8688;54.444;18.444;2023-06-22T09:19:04;12.63;;;2.55;;
17145;SDS011;8688;54.444;18.444;2023-06-22T09:21:31;5.10;;;2.30;;
17145;SDS011;8688;54.444;18.444;2023-06-22T09:23:59;3.10;;;2.42;;
17145;SDS011;8688;54.444;18.444;2023-06-22T09:26:26;5.00;;;2.10;;
17145;SDS011;8688;54.444;18.444;2023-06-22T09:28:55;3.83;;;2.58;;
17145;SDS011;8688;54.444;18.444;2023-06-22T09:31:23;6.57;;;2.58;;
17145;SDS011;8688;54.444;18.444;2023-06-22T09:33:52;3.13;;;2.22;;
17145;SDS011;8688;54.444;18.444;2023-06-22T09:36:20;5.85;;;2.50;;
17145;SDS011;8688;54.444;18.444;2023-06-22T09:38:48;5.30;;;2.20;;
17145;SDS011;8688;54.444;18.444;2023-06-22T09:41:20;4.18;;;2.55;;
17145;SDS011;8688;54.444;18.444;2023-06-22T09:43:47;6.70;;;3.03;;
17145;SDS011;8688;54.444;18.444;2023-06-22T09:46:16;3.90;;;2.30;;
17145;SDS011;8688;54.444;18.444;2023-06-22T09:48:47;4.60;;;2.50;;
17145;SDS011;8688;54.444;18.444;2023-06-22T09:51:14;5.93;;;2.38;;
17145;SDS011;8688;54.444;18.444;2023-06-22T09:53:42;6.10;;;2.22;;
17145;SDS011;8688;54.444;18.444;2023-06-22T09:56:16;3.63;;;2.30;;
17145;SDS011;8688;54.444;18.444;2023-06-22T09:58:44;8.80;;;2.30;;
17145;SDS011;8688;54.444;18.444;2023-06-22T10:01:16;4.22;;;2.17;;
17145;SDS011;8688;54.444;18.444;2023-06-22T10:03:46;5.82;;;2.03;;
17145;SDS011;8688;54.444;18.444;2023-06-22T10:06:14;4.00;;;2.22;;
17145;SDS011;8688;54.444;18.444;2023-06-22T10:08:42;5.70;;;2.22;;
17145;SDS011;8688;54.444;18.444;2023-06-22T10:11:09;3.70;;;2.15;;
17145;SDS011;8688;54.444;18.444;2023-06-22T10:13:36;4.00;;;2.10;;
17145;SDS011;8688;54.444;18.444;2023-06-22T10:16:04;4.85;;;2.47;;
17145;SDS011;8688;54.444;18.444;2023-06-22T10:18:33;4.93;;;2.50;;
17145;SDS011;8688;54.444;18.444;2023-06-22T10:21:01;4.93;;;2.55;;
17145;SDS011;8688;54.444;18.444;2023-06-22T10:23:29;8.10;;;2.67;;
17145;SDS011;8688;54.444;18.444;2023-06-22T10:25:56;7.10;;;2.45;;
17145;SDS011;8688;54.444;18.444;2023-06-22T10:28:24;4.65;;;2.47;;
17145;SDS011;8688;54.444;18.444;2023-06-22T10:30:51;6.63;;;2.20;;
17145;SDS011;8688;54.444;18.444;2023-06-22T10:33:18;6.50;;;2.42;;
17145;SDS011;8688;54.444;18.444;2023-06-22T10:35:48;3.40;;;2.05;;
17145;SDS011;8688;54.444;18.444;2023-06-22T10:38:15;7.68;;;2.20;;
17145;SDS011;8688;54.444;18.444;2023-06-22T10:40:43;6.47;;;2.40;;
17145;SDS011;8688;54.444;18.444;2023-06-22T10:43:10;5.20;;;2.20;;
17145;SDS011;8688;54.444;18.444;2023-06-22T10:45:37;4.80;;;2.30;;
17145;SDS011;8688;54.444;18.444;2023-06-22T10:48:05;3.63;;;2.30;;
17145;SDS011;8688;54.444;18.444;2023-06-22T10:50:33;3.15;;;2.08;;
17145;SDS011;8688;54.444;18.444;2023-06-22T10:53:02;5.90;;;2.30;;
17145;SDS011;8688;54.444;18.444;2023-06-22T10:55:29;3.15;;;2.13;;
17145;SDS011;8688;54.444;18.444;2023-06-22T10:57:56;3.92;;;2.47;;
17145;SDS011;8688;54.444;18.444;2023-06-22T11:00:24;4.75;;;2.40;;
17145;SDS011;8688;54.444;18.444;2023-06-22T11:02:51;3.28;;;2.22;;
17145;SDS011;8688;54.444;18.444;2023-06-22T11:05:19;3.65;;;2.22;;
17145;SDS011;8688;54.444;18.444;2023-06-22T11:07:46;3.30;;;2.13;;
17145;SDS011;8688;54.444;18.444;2023-06-22T11:10:16;6.53;;;2.50;;
17145;SDS011;8688;54.444;18.444;2023-06-22T11:12:44;5.97;;;2.10;;
17145;SDS011;8688;54.444;18.444;2023-06-22T11:15:11;3.13;;;2.20;;
17145;SDS011;8688;54.444;18.444;2023-06-22T11:17:38;3.83;;;2.05;;
17145;SDS011;8688;54.444;18.444;2023-06-22T11:20:06;5.32;;;2.80;;
17145;SDS011;8688;54.444;18.444;2023-06-22T11:22:36;3.70;;;2.10;;
17145;SDS011;8688;54.444;18.444;2023-06-22T11:25:04;4.35;;;2.10;;
17145;SDS011;8688;54.444;18.444;2023-06-22T11:27:34;5.93;;;2.80;;
17145;SDS011;8688;54.444;18.444;2023-06-22T11:30:01;3.13;;;1.90;;
17145;SDS011;8688;54.444;18.444;2023-06-22T11:32:29;4.22;;;2.38;;
17145;SDS011;8688;54.444;18.444;2023-06-22T11:34:56;8.10;;;2.45;;
17145;SDS011;8688;54.444;18.444;2023-06-22T11:37:24;7.28;;;2.28;;
17145;SDS011;8688;54.444;18.444;2023-06-22T11:39:51;4.53;;;2.50;;
17145;SDS011;8688;54.444;18.444;2023-06-22T11:42:20;7.82;;;2.20;;
17145;SDS011;8688;54.444;18.444;2023-06-22T11:44:50;3.95;;;2.00;;
17145;SDS011;8688;54.444;18.444;2023-06-22T11:47:18;3.80;;;2.40;;
17145;SDS011;8688;54.444;18.444;2023-06-22T11:49:45;4.75;;;2.50;;
17145;SDS011;8688;54.444;18.444;2023-06-22T11:52:13;8.40;;;2.30;;
17145;SDS011;8688;54.444;18.444;2023-06-22T11:54:42;5.00;;;2.10;;
17145;SDS011;8688;54.444;18.444;2023-06-22T11:57:11;4.63;;;2.20;;
17145;SDS011;8688;54.444;18.444;2023-06-22T11:59:38;3.08;;;2.08;;
17145;SDS011;8688;54.444;18.444;2023-06-22T12:02:07;4.32;;;2.10;;
17145;SDS011;8688;54.444;18.444;2023-06-22T12:04:34;3.95;;;2.10;;
17145;SDS011;8688;54.444;18.444;2023-06-22T12:07:03;6.63;;;2.35;;
17145;SDS011;8688;54.444;18.444;2023-06-22T12:09:30;20.25;;;3.00;;
17145;SDS011;8688;54.444;18.444;2023-06-22T12:11:58;4.45;;;2.03;;
17145;SDS011;8688;54.444;18.444;2023-06-22T12:14:26;13.45;;;2.78;;
17145;SDS011;8688;54.444;18.444;2023-06-22T12:16:53;5.63;;;2.63;;
17145;SDS011;8688;54.444;18.444;2023-06-22T12:19:22;4.43;;;2.30;;
17145;SDS011;8688;54.444;18.444;2023-06-22T12:21:49;4.00;;;2.08;;
17145;SDS011;8688;54.444;18.444;2023-06-22T12:24:17;4.43;;;1.92;;
17145;SDS011;8688;54.444;18.444;2023-06-22T12:26:45;5.30;;;1.83;;
17145;SDS011;8688;54.444;18.444;2023-06-22T12:29:13;4.82;;;2.30;;
17145;SDS011;8688;54.444;18.444;2023-06-22T12:31:40;4.72;;;2.30;;
17145;SDS011;8688;54.444;18.444;2023-06-22T12:34:07;3.97;;;2.10;;
17145;SDS011;8688;54.444;18.444;2023-06-22T12:36:36;12.93;;;2.33;;
17145;SDS011;8688;54.444;18.444;2023-06-22T12:39:04;4.05;;;2.20;;
17145;SDS011;8688;54.444;18.444;2023-06-22T12:41:31;7.03;;;1.75;;
17145;SDS011;8688;54.444;18.444;2023-06-22T12:43:59;6.07;;;1.95;;
17145;SDS011;8688;54.444;18.444;2023-06-22T12:46:26;3.92;;;1.90;;
17145;SDS011;8688;54.444;18.444;2023-06-22T12:48:55;4.05;;;1.92;;
17145;SDS011;8688;54.444;18.444;2023-06-22T12:51:22;3.42;;;1.83;;
17145;SDS011;8688;54.444;18.444;2023-06-22T12:53:51;8.82;;;2.00;;
17145;SDS011;8688;54.444;18.444;2023-06-22T12:56:19;5.60;;;2.05;;
17145;SDS011;8688;54.444;18.444;2023-06-22T12:58:47;5.68;;;1.88;;
17145;SDS011;8688;54.444;18.444;2023-06-22T13:01:14;5.78;;;1.90;;
17145;SDS011;8688;54.444;18.444;2023-06-22T13:03:43;5.88;;;1.92;;
17145;SDS011;8688;54.444;18.444;2023-06-22T13:06:10;3.95;;;2.00;;
17145;SDS011;8688;54.444;18.444;2023-06-22T13:08:38;3.00;;;1.77;;
17145;SDS011;8688;54.444;18.444;2023-06-22T13:11:07;2.08;;;1.73;;
17145;SDS011;8688;54.444;18.444;2023-06-22T13:13:34;2.88;;;1.70;;
17145;SDS011;8688;54.444;18.444;2023-06-22T13:16:01;3.20;;;2.10;;
17145;SDS011;8688;54.444;18.444;2023-06-22T13:18:29;3.80;;;2.03;;
17145;SDS011;8688;54.444;18.444;2023-06-22T13:20:56;5.72;;;2.05;;
17145;SDS011;8688;54.444;18.444;2023-06-22T13:23:25;6.95;;;2.20;;
17145;SDS011;8688;54.444;18.444;2023-06-22T13:25:52;5.55;;;2.35;;
17145;SDS011;8688;54.444;18.444;2023-06-22T13:28:21;2.97;;;1.92;;
17145;SDS011;8688;54.444;18.444;2023-06-22T13:30:49;3.13;;;2.13;;
17145;SDS011;8688;54.444;18.444;2023-06-22T13:33:16;7.97;;;1.90;;
17145;SDS011;8688;54.444;18.444;2023-06-22T13:35:44;4.03;;;1.90;;
17145;SDS011;8688;54.444;18.444;2023-06-22T13:38:11;3.95;;;2.00;;
17145;SDS011;8688;54.444;18.444;2023-06-22T13:40:39;5.00;;;1.98;;
17145;SDS011;8688;54.444;18.444;2023-06-22T13:43:06;3.38;;;2.00;;
17145;SDS011;8688;54.444;18.444;2023-06-22T13:45:35;2.47;;;1.90;;
17145;SDS011;8688;54.444;18.444;2023-06-22T13:48:02;5.00;;;2.05;;
17145;SDS011;8688;54.444;18.444;2023-06-22T13:50:33;6.32;;;2.20;;
17145;SDS011;8688;54.444;18.444;2023-06-22T13:53:02;7.25;;;2.75;;
17145;SDS011;8688;54.444;18.444;2023-06-22T13:55:29;4.47;;;2.20;;
17145;SDS011;8688;54.444;18.444;2023-06-22T13:57:57;3.22;;;1.83;;
17145;SDS011;8688;54.444;18.444;2023-06-22T14:00:24;4.97;;;2.28;;
17145;SDS011;8688;54.444;18.444;2023-06-22T14:02:54;4.45;;;2.20;;
17145;SDS011;8688;54.444;18.444;2023-06-22T14:05:21;3.88;;;2.00;;
17145;SDS011;8688;54.444;18.444;2023-06-22T14:07:49;4.18;;;1.90;;
17145;SDS011;8688;54.444;18.444;2023-06-22T14:10:17;4.25;;;2.50;;
17145;SDS011;8688;54.444;18.444;2023-06-22T14:12:45;3.33;;;2.00;;
17145;SDS011;8688;54.444;18.444;2023-06-22T14:15:13;3.28;;;1.83;;
17145;SDS011;8688;54.444;18.444;2023-06-22T14:17:40;3.67;;;2.00;;
17145;SDS011;8688;54.444;18.444;2023-06-22T14:20:10;4.97;;;2.20;;
17145;SDS011;8688;54.444;18.444;2023-06-22T14:22:38;8.27;;;2.17;;
17145;SDS011;8688;54.444;18.444;2023-06-22T14:25:06;2.78;;;1.90;;
17145;SDS011;8688;54.444;18.444;2023-06-22T14:27:34;4.35;;;2.00;;
17145;SDS011;8688;54.444;18.444;2023-06-22T14:30:01;5.85;;;2.13;;
17145;SDS011;8688;54.444;18.444;2023-06-22T14:32:29;3.33;;;2.40;;
17145;SDS011;8688;54.444;18.444;2023-06-22T14:34:56;4.10;;;2.20;;
17145;SDS011;8688;54.444;18.444;2023-06-22T14:37:25;5.32;;;2.38;;
17145;SDS011;8688;54.444;18.444;2023-06-22T14:39:53;6.60;;;2.15;;
17145;SDS011;8688;54.444;18.444;2023-06-22T14:42:20;2.60;;;1.80;;
17145;SDS011;8688;54.444;18.444;2023-06-22T14:44:48;2.38;;;1.83;;
17145;SDS011;8688;54.444;18.444;2023-06-22T14:47:15;5.10;;;2.30;;